Terminal Aerodrome Forecast
Issued by NWS Charleston, WV

Home | Current Version | Previous Version | Text Only | Print | Product List | Glossary On
Versions: 1 2 3 4 5 6 7 8 9 10 11 12 13 14 15 16 17 18 19 20 21
000
FTUS41 KRLX 260200 AAA
TAFEKN
TAF AMD
KEKN 260243Z 2603/2624 24006KT 6SM BR BKN040
     FM260500 16005KT 6SM -RAPL BR BKN035
     FM260700 16005KT 4SM -RASNPL BR OVC020
     FM260900 15004KT 2SM -SNPL BR OVC010
     FM261200 12005KT 2SM -SN BR OVC003
     FM261600 12004KT 2SM -RASN BR OVC003=

USA.gov is the U.S. government's official web portal to all federal, state and local government web resources and services.